sensor_id;sensor_type;location;lat;lon;timestamp;P1;durP1;ratioP1;P2;durP2;ratioP2
842;SDS011;407;48.884;9.126;2023-06-14T00:01:19;13.10;;;4.60;;
842;SDS011;407;48.884;9.126;2023-06-14T00:03:46;8.25;;;4.05;;
842;SDS011;407;48.884;9.126;2023-06-14T00:06:13;10.18;;;4.60;;
842;SDS011;407;48.884;9.126;2023-06-14T00:08:39;10.02;;;4.30;;
842;SDS011;407;48.884;9.126;2023-06-14T00:11:05;10.07;;;3.80;;
842;SDS011;407;48.884;9.126;2023-06-14T00:13:31;9.40;;;4.28;;
842;SDS011;407;48.884;9.126;2023-06-14T00:15:57;9.20;;;4.50;;
842;SDS011;407;48.884;9.126;2023-06-14T00:18:22;16.07;;;4.67;;
842;SDS011;407;48.884;9.126;2023-06-14T00:20:54;9.13;;;4.53;;
842;SDS011;407;48.884;9.126;2023-06-14T00:23:20;11.20;;;4.30;;
842;SDS011;407;48.884;9.126;2023-06-14T00:25:46;11.48;;;4.22;;
842;SDS011;407;48.884;9.126;2023-06-14T00:28:11;11.13;;;4.30;;
842;SDS011;407;48.884;9.126;2023-06-14T00:30:37;10.23;;;4.15;;
842;SDS011;407;48.884;9.126;2023-06-14T00:33:02;10.27;;;4.60;;
842;SDS011;407;48.884;9.126;2023-06-14T00:35:29;13.38;;;4.80;;
842;SDS011;407;48.884;9.126;2023-06-14T00:37:54;10.07;;;4.85;;
842;SDS011;407;48.884;9.126;2023-06-14T00:40:20;10.07;;;4.70;;
842;SDS011;407;48.884;9.126;2023-06-14T00:42:46;10.17;;;4.30;;
842;SDS011;407;48.884;9.126;2023-06-14T00:45:12;11.30;;;4.70;;
842;SDS011;407;48.884;9.126;2023-06-14T00:47:38;11.17;;;4.60;;
842;SDS011;407;48.884;9.126;2023-06-14T00:50:06;8.70;;;4.55;;
842;SDS011;407;48.884;9.126;2023-06-14T00:52:32;8.77;;;4.30;;
842;SDS011;407;48.884;9.126;2023-06-14T00:54:58;11.43;;;4.70;;
842;SDS011;407;48.884;9.126;2023-06-14T00:57:23;9.90;;;4.60;;
842;SDS011;407;48.884;9.126;2023-06-14T00:59:49;10.10;;;4.60;;
842;SDS011;407;48.884;9.126;2023-06-14T01:02:15;10.43;;;4.50;;
842;SDS011;407;48.884;9.126;2023-06-14T01:04:42;8.70;;;4.13;;
842;SDS011;407;48.884;9.126;2023-06-14T01:10:07;10.70;;;5.10;;
842;SDS011;407;48.884;9.126;2023-06-14T01:12:58;10.13;;;4.60;;
842;SDS011;407;48.884;9.126;2023-06-14T01:15:34;11.23;;;5.07;;
842;SDS011;407;48.884;9.126;2023-06-14T01:18:01;10.82;;;5.15;;
842;SDS011;407;48.884;9.126;2023-06-14T01:20:31;10.50;;;4.80;;
842;SDS011;407;48.884;9.126;2023-06-14T01:22:58;10.87;;;5.23;;
842;SDS011;407;48.884;9.126;2023-06-14T01:25:24;10.77;;;4.68;;
842;SDS011;407;48.884;9.126;2023-06-14T01:27:52;8.60;;;4.43;;
842;SDS011;407;48.884;9.126;2023-06-14T01:30:22;9.70;;;4.60;;
842;SDS011;407;48.884;9.126;2023-06-14T01:32:50;11.35;;;5.40;;
842;SDS011;407;48.884;9.126;2023-06-14T01:35:17;10.25;;;4.45;;
842;SDS011;407;48.884;9.126;2023-06-14T01:37:43;12.50;;;5.45;;
842;SDS011;407;48.884;9.126;2023-06-14T01:40:10;9.75;;;5.20;;
842;SDS011;407;48.884;9.126;2023-06-14T01:42:37;11.10;;;5.00;;
842;SDS011;407;48.884;9.126;2023-06-14T01:45:04;9.25;;;4.28;;
842;SDS011;407;48.884;9.126;2023-06-14T01:47:31;10.45;;;4.53;;
842;SDS011;407;48.884;9.126;2023-06-14T01:49:57;11.30;;;4.75;;
842;SDS011;407;48.884;9.126;2023-06-14T01:52:23;10.50;;;4.70;;
842;SDS011;407;48.884;9.126;2023-06-14T01:54:49;10.93;;;5.00;;
842;SDS011;407;48.884;9.126;2023-06-14T01:57:15;9.38;;;4.72;;
842;SDS011;407;48.884;9.126;2023-06-14T01:59:41;12.30;;;5.07;;
842;SDS011;407;48.884;9.126;2023-06-14T02:02:06;9.00;;;4.37;;
842;SDS011;407;48.884;9.126;2023-06-14T02:04:32;9.77;;;4.30;;
842;SDS011;407;48.884;9.126;2023-06-14T02:06:58;11.27;;;5.20;;
842;SDS011;407;48.884;9.126;2023-06-14T02:09:23;10.00;;;5.30;;
842;SDS011;407;48.884;9.126;2023-06-14T02:11:50;10.40;;;5.00;;
842;SDS011;407;48.884;9.126;2023-06-14T02:14:15;10.45;;;5.20;;
842;SDS011;407;48.884;9.126;2023-06-14T02:16:42;11.35;;;4.90;;
842;SDS011;407;48.884;9.126;2023-06-14T02:19:13;11.68;;;5.75;;
842;SDS011;407;48.884;9.126;2023-06-14T02:21:42;10.30;;;5.20;;
842;SDS011;407;48.884;9.126;2023-06-14T02:24:08;13.53;;;5.50;;
842;SDS011;407;48.884;9.126;2023-06-14T02:26:34;10.77;;;5.03;;
842;SDS011;407;48.884;9.126;2023-06-14T02:29:00;10.70;;;5.07;;
842;SDS011;407;48.884;9.126;2023-06-14T02:31:25;10.25;;;5.28;;
842;SDS011;407;48.884;9.126;2023-06-14T02:33:51;10.70;;;5.70;;
842;SDS011;407;48.884;9.126;2023-06-14T02:36:17;11.73;;;5.68;;
842;SDS011;407;48.884;9.126;2023-06-14T02:38:42;12.87;;;6.30;;
842;SDS011;407;48.884;9.126;2023-06-14T02:41:08;11.60;;;5.50;;
842;SDS011;407;48.884;9.126;2023-06-14T02:43:33;9.88;;;5.10;;
842;SDS011;407;48.884;9.126;2023-06-14T02:45:59;11.73;;;5.20;;
842;SDS011;407;48.884;9.126;2023-06-14T02:48:25;10.07;;;5.13;;
842;SDS011;407;48.884;9.126;2023-06-14T02:50:50;10.15;;;5.10;;
842;SDS011;407;48.884;9.126;2023-06-14T02:53:16;11.30;;;4.97;;
842;SDS011;407;48.884;9.126;2023-06-14T02:55:42;10.38;;;5.05;;
842;SDS011;407;48.884;9.126;2023-06-14T02:58:07;11.07;;;5.40;;
842;SDS011;407;48.884;9.126;2023-06-14T03:00:33;11.87;;;5.13;;
842;SDS011;407;48.884;9.126;2023-06-14T03:03:00;11.85;;;5.90;;
842;SDS011;407;48.884;9.126;2023-06-14T03:05:26;11.23;;;5.25;;
842;SDS011;407;48.884;9.126;2023-06-14T03:07:53;11.60;;;5.47;;
842;SDS011;407;48.884;9.126;2023-06-14T03:10:19;11.15;;;5.40;;
842;SDS011;407;48.884;9.126;2023-06-14T03:12:45;10.48;;;5.32;;
842;SDS011;407;48.884;9.126;2023-06-14T03:15:12;12.32;;;5.63;;
842;SDS011;407;48.884;9.126;2023-06-14T03:17:38;9.98;;;5.25;;
842;SDS011;407;48.884;9.126;2023-06-14T03:20:04;12.40;;;5.67;;
842;SDS011;407;48.884;9.126;2023-06-14T03:22:30;11.38;;;5.60;;
842;SDS011;407;48.884;9.126;2023-06-14T03:24:59;12.85;;;5.75;;
842;SDS011;407;48.884;9.126;2023-06-14T03:27:25;13.27;;;5.88;;
842;SDS011;407;48.884;9.126;2023-06-14T03:29:53;10.55;;;5.07;;
842;SDS011;407;48.884;9.126;2023-06-14T03:32:19;11.37;;;5.50;;
842;SDS011;407;48.884;9.126;2023-06-14T03:34:44;11.02;;;5.50;;
842;SDS011;407;48.884;9.126;2023-06-14T03:37:10;12.60;;;5.77;;
842;SDS011;407;48.884;9.126;2023-06-14T03:39:35;13.93;;;6.20;;
842;SDS011;407;48.884;9.126;2023-06-14T03:42:01;10.05;;;5.40;;
842;SDS011;407;48.884;9.126;2023-06-14T03:44:27;13.80;;;6.10;;
842;SDS011;407;48.884;9.126;2023-06-14T03:46:53;14.27;;;6.00;;
842;SDS011;407;48.884;9.126;2023-06-14T03:49:18;11.13;;;5.20;;
842;SDS011;407;48.884;9.126;2023-06-14T03:51:44;10.73;;;5.50;;
842;SDS011;407;48.884;9.126;2023-06-14T03:54:09;10.57;;;5.30;;
842;SDS011;407;48.884;9.126;2023-06-14T03:56:35;11.75;;;5.32;;
842;SDS011;407;48.884;9.126;2023-06-14T03:59:01;10.27;;;5.40;;
842;SDS011;407;48.884;9.126;2023-06-14T04:01:27;10.35;;;5.15;;
842;SDS011;407;48.884;9.126;2023-06-14T04:03:55;15.63;;;5.72;;
842;SDS011;407;48.884;9.126;2023-06-14T04:06:21;10.60;;;5.32;;
842;SDS011;407;48.884;9.126;2023-06-14T04:08:49;12.02;;;5.30;;
842;SDS011;407;48.884;9.126;2023-06-14T04:11:15;12.77;;;5.28;;
842;SDS011;407;48.884;9.126;2023-06-14T04:13:41;13.05;;;5.85;;
842;SDS011;407;48.884;9.126;2023-06-14T04:16:06;15.63;;;7.35;;
842;SDS011;407;48.884;9.126;2023-06-14T04:18:32;10.70;;;5.30;;
842;SDS011;407;48.884;9.126;2023-06-14T04:20:57;14.03;;;7.10;;
842;SDS011;407;48.884;9.126;2023-06-14T04:23:23;11.17;;;5.30;;
842;SDS011;407;48.884;9.126;2023-06-14T04:25:48;14.20;;;5.80;;
842;SDS011;407;48.884;9.126;2023-06-14T04:28:15;12.93;;;6.25;;
842;SDS011;407;48.884;9.126;2023-06-14T04:30:41;12.98;;;5.30;;
842;SDS011;407;48.884;9.126;2023-06-14T04:33:07;12.95;;;6.25;;
842;SDS011;407;48.884;9.126;2023-06-14T04:35:34;9.60;;;5.10;;
842;SDS011;407;48.884;9.126;2023-06-14T04:38:02;13.10;;;5.57;;
842;SDS011;407;48.884;9.126;2023-06-14T04:40:30;10.35;;;4.85;;
842;SDS011;407;48.884;9.126;2023-06-14T04:42:56;12.50;;;5.85;;
842;SDS011;407;48.884;9.126;2023-06-14T04:45:22;12.80;;;5.77;;
842;SDS011;407;48.884;9.126;2023-06-14T04:47:48;13.85;;;6.45;;
842;SDS011;407;48.884;9.126;2023-06-14T04:50:16;12.90;;;5.97;;
842;SDS011;407;48.884;9.126;2023-06-14T04:52:42;11.02;;;5.15;;
842;SDS011;407;48.884;9.126;2023-06-14T04:55:07;11.10;;;5.30;;
842;SDS011;407;48.884;9.126;2023-06-14T04:57:33;10.75;;;5.60;;
842;SDS011;407;48.884;9.126;2023-06-14T05:00:00;11.20;;;5.65;;
842;SDS011;407;48.884;9.126;2023-06-14T05:02:26;11.27;;;5.60;;
842;SDS011;407;48.884;9.126;2023-06-14T05:04:52;11.70;;;5.30;;
842;SDS011;407;48.884;9.126;2023-06-14T05:07:18;9.85;;;4.75;;
842;SDS011;407;48.884;9.126;2023-06-14T05:09:45;10.45;;;5.20;;
842;SDS011;407;48.884;9.126;2023-06-14T05:12:10;9.97;;;4.90;;
842;SDS011;407;48.884;9.126;2023-06-14T05:14:36;10.50;;;5.20;;
842;SDS011;407;48.884;9.126;2023-06-14T05:17:02;10.90;;;5.30;;
842;SDS011;407;48.884;9.126;2023-06-14T05:19:28;9.38;;;4.80;;
842;SDS011;407;48.884;9.126;2023-06-14T05:21:53;10.90;;;5.30;;
842;SDS011;407;48.884;9.126;2023-06-14T05:24:19;8.90;;;5.03;;
842;SDS011;407;48.884;9.126;2023-06-14T05:26:45;11.37;;;5.90;;
842;SDS011;407;48.884;9.126;2023-06-14T05:29:11;11.90;;;5.72;;
842;SDS011;407;48.884;9.126;2023-06-14T05:31:37;11.43;;;5.68;;
842;SDS011;407;48.884;9.126;2023-06-14T05:34:03;11.15;;;5.25;;
842;SDS011;407;48.884;9.126;2023-06-14T05:36:28;11.13;;;4.90;;
842;SDS011;407;48.884;9.126;2023-06-14T05:38:54;13.03;;;5.97;;
842;SDS011;407;48.884;9.126;2023-06-14T05:41:23;11.30;;;5.80;;
842;SDS011;407;48.884;9.126;2023-06-14T05:43:50;12.15;;;6.93;;
842;SDS011;407;48.884;9.126;2023-06-14T05:46:16;18.15;;;9.80;;
842;SDS011;407;48.884;9.126;2023-06-14T05:48:46;12.38;;;6.55;;
842;SDS011;407;48.884;9.126;2023-06-14T05:51:12;11.20;;;6.60;;
842;SDS011;407;48.884;9.126;2023-06-14T05:53:38;12.30;;;5.33;;
842;SDS011;407;48.884;9.126;2023-06-14T05:56:03;12.20;;;6.20;;
842;SDS011;407;48.884;9.126;2023-06-14T05:58:29;11.00;;;5.70;;
842;SDS011;407;48.884;9.126;2023-06-14T06:00:55;10.00;;;5.30;;
842;SDS011;407;48.884;9.126;2023-06-14T06:03:20;11.73;;;5.78;;
842;SDS011;407;48.884;9.126;2023-06-14T06:05:46;11.20;;;4.93;;
842;SDS011;407;48.884;9.126;2023-06-14T06:08:11;11.93;;;5.20;;
842;SDS011;407;48.884;9.126;2023-06-14T06:10:38;10.05;;;5.78;;
842;SDS011;407;48.884;9.126;2023-06-14T06:13:04;10.27;;;4.90;;
842;SDS011;407;48.884;9.126;2023-06-14T06:15:29;10.15;;;5.25;;
842;SDS011;407;48.884;9.126;2023-06-14T06:17:55;11.85;;;5.82;;
842;SDS011;407;48.884;9.126;2023-06-14T06:20:20;13.70;;;6.10;;
842;SDS011;407;48.884;9.126;2023-06-14T06:22:52;9.88;;;5.55;;
842;SDS011;407;48.884;9.126;2023-06-14T06:25:18;10.60;;;5.68;;
842;SDS011;407;48.884;9.126;2023-06-14T06:27:44;11.17;;;5.63;;
842;SDS011;407;48.884;9.126;2023-06-14T06:30:10;11.30;;;4.97;;
842;SDS011;407;48.884;9.126;2023-06-14T06:32:36;9.20;;;5.10;;
842;SDS011;407;48.884;9.126;2023-06-14T06:35:02;9.10;;;5.20;;
842;SDS011;407;48.884;9.126;2023-06-14T06:37:28;10.75;;;5.82;;
842;SDS011;407;48.884;9.126;2023-06-14T06:39:53;11.88;;;4.82;;
842;SDS011;407;48.884;9.126;2023-06-14T06:42:19;9.90;;;5.50;;
842;SDS011;407;48.884;9.126;2023-06-14T06:44:45;9.10;;;4.97;;
842;SDS011;407;48.884;9.126;2023-06-14T06:47:10;10.55;;;5.90;;
842;SDS011;407;48.884;9.126;2023-06-14T06:49:36;10.17;;;5.13;;
842;SDS011;407;48.884;9.126;2023-06-14T06:52:05;10.63;;;5.73;;
842;SDS011;407;48.884;9.126;2023-06-14T06:54:32;10.73;;;5.20;;
842;SDS011;407;48.884;9.126;2023-06-14T06:56:57;11.18;;;5.70;;
842;SDS011;407;48.884;9.126;2023-06-14T06:59:23;10.17;;;5.03;;
842;SDS011;407;48.884;9.126;2023-06-14T07:01:49;11.50;;;5.53;;
842;SDS011;407;48.884;9.126;2023-06-14T07:04:15;11.73;;;5.97;;
842;SDS011;407;48.884;9.126;2023-06-14T07:06:41;11.23;;;5.43;;
842;SDS011;407;48.884;9.126;2023-06-14T07:09:07;9.48;;;5.05;;
842;SDS011;407;48.884;9.126;2023-06-14T07:11:37;9.90;;;5.25;;
842;SDS011;407;48.884;9.126;2023-06-14T07:14:06;10.73;;;5.07;;
842;SDS011;407;48.884;9.126;2023-06-14T07:16:31;9.07;;;4.53;;
842;SDS011;407;48.884;9.126;2023-06-14T07:18:57;10.57;;;5.20;;
842;SDS011;407;48.884;9.126;2023-06-14T07:21:23;9.83;;;5.03;;
842;SDS011;407;48.884;9.126;2023-06-14T07:23:50;10.30;;;5.20;;
842;SDS011;407;48.884;9.126;2023-06-14T07:26:16;11.40;;;5.00;;
842;SDS011;407;48.884;9.126;2023-06-14T07:28:42;9.60;;;4.80;;
842;SDS011;407;48.884;9.126;2023-06-14T07:31:10;11.80;;;5.32;;
842;SDS011;407;48.884;9.126;2023-06-14T07:33:35;9.60;;;5.38;;
842;SDS011;407;48.884;9.126;2023-06-14T07:36:03;9.10;;;4.95;;
842;SDS011;407;48.884;9.126;2023-06-14T07:38:28;10.38;;;5.40;;
842;SDS011;407;48.884;9.126;2023-06-14T07:40:54;11.38;;;5.72;;
842;SDS011;407;48.884;9.126;2023-06-14T07:43:19;10.67;;;5.80;;
842;SDS011;407;48.884;9.126;2023-06-14T07:45:45;11.68;;;5.03;;
842;SDS011;407;48.884;9.126;2023-06-14T07:48:11;10.60;;;5.70;;
842;SDS011;407;48.884;9.126;2023-06-14T07:50:36;9.30;;;5.23;;
842;SDS011;407;48.884;9.126;2023-06-14T07:53:02;10.40;;;5.50;;
842;SDS011;407;48.884;9.126;2023-06-14T07:55:27;11.50;;;5.50;;
842;SDS011;407;48.884;9.126;2023-06-14T07:57:53;10.80;;;5.90;;
842;SDS011;407;48.884;9.126;2023-06-14T08:00:19;11.20;;;5.10;;
842;SDS011;407;48.884;9.126;2023-06-14T08:02:45;9.23;;;5.10;;
842;SDS011;407;48.884;9.126;2023-06-14T08:05:11;10.53;;;5.77;;
842;SDS011;407;48.884;9.126;2023-06-14T08:07:37;9.70;;;5.33;;
842;SDS011;407;48.884;9.126;2023-06-14T08:10:04;10.80;;;5.90;;
842;SDS011;407;48.884;9.126;2023-06-14T08:12:30;8.60;;;5.18;;
842;SDS011;407;48.884;9.126;2023-06-14T08:14:56;9.60;;;5.47;;
842;SDS011;407;48.884;9.126;2023-06-14T08:17:21;10.80;;;5.47;;
842;SDS011;407;48.884;9.126;2023-06-14T08:19:47;8.73;;;5.10;;
842;SDS011;407;48.884;9.126;2023-06-14T08:22:12;10.27;;;5.30;;
842;SDS011;407;48.884;9.126;2023-06-14T08:24:38;9.68;;;5.40;;
842;SDS011;407;48.884;9.126;2023-06-14T08:27:05;10.20;;;6.00;;
842;SDS011;407;48.884;9.126;2023-06-14T08:29:31;10.23;;;6.10;;
842;SDS011;407;48.884;9.126;2023-06-14T08:31:57;11.40;;;6.00;;
842;SDS011;407;48.884;9.126;2023-06-14T08:34:23;9.10;;;5.30;;
842;SDS011;407;48.884;9.126;2023-06-14T08:36:49;11.63;;;5.73;;
842;SDS011;407;48.884;9.126;2023-06-14T08:39:15;10.30;;;5.30;;
842;SDS011;407;48.884;9.126;2023-06-14T08:41:41;11.75;;;5.60;;
842;SDS011;407;48.884;9.126;2023-06-14T08:44:10;9.30;;;5.32;;
842;SDS011;407;48.884;9.126;2023-06-14T08:46:35;13.00;;;6.47;;
842;SDS011;407;48.884;9.126;2023-06-14T08:49:02;9.65;;;5.75;;
842;SDS011;407;48.884;9.126;2023-06-14T08:51:30;10.48;;;5.50;;
842;SDS011;407;48.884;9.126;2023-06-14T08:54:01;13.25;;;5.47;;
842;SDS011;407;48.884;9.126;2023-06-14T08:56:29;8.90;;;5.03;;
842;SDS011;407;48.884;9.126;2023-06-14T08:58:55;10.32;;;5.65;;
842;SDS011;407;48.884;9.126;2023-06-14T09:01:23;11.13;;;5.95;;
842;SDS011;407;48.884;9.126;2023-06-14T09:03:49;9.60;;;5.27;;
842;SDS011;407;48.884;9.126;2023-06-14T09:06:15;10.68;;;6.03;;
842;SDS011;407;48.884;9.126;2023-06-14T09:08:44;10.02;;;5.30;;
842;SDS011;407;48.884;9.126;2023-06-14T09:11:11;10.43;;;5.60;;
842;SDS011;407;48.884;9.126;2023-06-14T09:13:38;11.45;;;5.50;;
842;SDS011;407;48.884;9.126;2023-06-14T09:16:04;9.45;;;4.80;;
842;SDS011;407;48.884;9.126;2023-06-14T09:18:37;11.03;;;5.20;;
842;SDS011;407;48.884;9.126;2023-06-14T09:21:10;13.98;;;6.05;;
842;SDS011;407;48.884;9.126;2023-06-14T09:23:37;9.02;;;5.18;;
842;SDS011;407;48.884;9.126;2023-06-14T09:26:13;8.97;;;4.93;;
842;SDS011;407;48.884;9.126;2023-06-14T09:28:47;10.00;;;5.25;;
842;SDS011;407;48.884;9.126;2023-06-14T09:31:13;9.38;;;5.40;;
842;SDS011;407;48.884;9.126;2023-06-14T09:33:47;9.63;;;5.40;;
842;SDS011;407;48.884;9.126;2023-06-14T09:38:53;9.38;;;4.90;;
842;SDS011;407;48.884;9.126;2023-06-14T09:41:39;11.48;;;4.82;;
842;SDS011;407;48.884;9.126;2023-06-14T09:44:07;9.82;;;5.20;;
842;SDS011;407;48.884;9.126;2023-06-14T09:46:34;9.90;;;5.07;;
842;SDS011;407;48.884;9.126;2023-06-14T09:49:01;9.32;;;4.53;;
842;SDS011;407;48.884;9.126;2023-06-14T09:51:27;9.75;;;5.10;;
842;SDS011;407;48.884;9.126;2023-06-14T09:53:55;10.50;;;4.70;;
842;SDS011;407;48.884;9.126;2023-06-14T09:56:28;9.53;;;5.13;;
842;SDS011;407;48.884;9.126;2023-06-14T09:58:55;9.55;;;4.50;;
842;SDS011;407;48.884;9.126;2023-06-14T10:01:26;15.40;;;5.35;;
842;SDS011;407;48.884;9.126;2023-06-14T10:03:55;10.97;;;4.90;;
842;SDS011;407;48.884;9.126;2023-06-14T10:06:31;8.57;;;4.80;;
842;SDS011;407;48.884;9.126;2023-06-14T10:08:58;10.35;;;5.07;;
842;SDS011;407;48.884;9.126;2023-06-14T10:11:25;12.50;;;4.80;;
842;SDS011;407;48.884;9.126;2023-06-14T10:13:51;7.80;;;4.40;;
842;SDS011;407;48.884;9.126;2023-06-14T10:16:19;8.77;;;4.53;;
842;SDS011;407;48.884;9.126;2023-06-14T10:21:38;8.95;;;4.60;;
842;SDS011;407;48.884;9.126;2023-06-14T10:24:12;9.53;;;4.47;;
842;SDS011;407;48.884;9.126;2023-06-14T10:26:57;9.15;;;4.40;;
842;SDS011;407;48.884;9.126;2023-06-14T10:29:23;8.23;;;3.47;;
842;SDS011;407;48.884;9.126;2023-06-14T10:31:50;8.38;;;4.00;;
842;SDS011;407;48.884;9.126;2023-06-14T10:34:24;9.18;;;4.40;;
842;SDS011;407;48.884;9.126;2023-06-14T10:37:33;12.77;;;4.27;;
842;SDS011;407;48.884;9.126;2023-06-14T10:39:41;8.75;;;4.20;;
842;SDS011;407;48.884;9.126;2023-06-14T10:42:09;9.73;;;4.60;;
842;SDS011;407;48.884;9.126;2023-06-14T10:44:38;9.00;;;4.20;;
842;SDS011;407;48.884;9.126;2023-06-14T10:47:38;10.82;;;3.50;;
842;SDS011;407;48.884;9.126;2023-06-14T10:52:33;8.43;;;4.03;;
842;SDS011;407;48.884;9.126;2023-06-14T10:57:38;9.20;;;4.20;;
842;SDS011;407;48.884;9.126;2023-06-14T11:00:05;9.13;;;3.95;;
842;SDS011;407;48.884;9.126;2023-06-14T11:05:29;9.55;;;3.80;;
842;SDS011;407;48.884;9.126;2023-06-14T11:08:00;9.57;;;3.70;;
842;SDS011;407;48.884;9.126;2023-06-14T11:10:43;8.18;;;3.97;;
842;SDS011;407;48.884;9.126;2023-06-14T11:13:12;9.73;;;3.80;;
842;SDS011;407;48.884;9.126;2023-06-14T11:15:38;8.55;;;4.20;;
842;SDS011;407;48.884;9.126;2023-06-14T11:18:08;8.80;;;3.85;;
842;SDS011;407;48.884;9.126;2023-06-14T11:20:36;8.43;;;3.80;;
842;SDS011;407;48.884;9.126;2023-06-14T11:23:02;9.70;;;3.80;;
842;SDS011;407;48.884;9.126;2023-06-14T11:25:28;8.27;;;4.00;;
842;SDS011;407;48.884;9.126;2023-06-14T11:27:54;7.75;;;3.83;;
842;SDS011;407;48.884;9.126;2023-06-14T11:30:21;8.82;;;4.30;;
842;SDS011;407;48.884;9.126;2023-06-14T11:32:47;8.77;;;4.47;;
842;SDS011;407;48.884;9.126;2023-06-14T11:35:14;8.70;;;3.90;;
842;SDS011;407;48.884;9.126;2023-06-14T11:37:40;8.38;;;4.03;;
842;SDS011;407;48.884;9.126;2023-06-14T11:40:07;8.57;;;3.90;;
842;SDS011;407;48.884;9.126;2023-06-14T11:42:35;8.87;;;3.70;;
842;SDS011;407;48.884;9.126;2023-06-14T11:45:01;10.07;;;4.30;;
842;SDS011;407;48.884;9.126;2023-06-14T11:47:32;9.85;;;3.80;;
842;SDS011;407;48.884;9.126;2023-06-14T11:50:01;8.80;;;4.00;;
842;SDS011;407;48.884;9.126;2023-06-14T11:52:28;10.00;;;4.20;;
842;SDS011;407;48.884;9.126;2023-06-14T11:54:53;12.20;;;4.07;;
842;SDS011;407;48.884;9.126;2023-06-14T11:57:19;9.70;;;4.00;;
842;SDS011;407;48.884;9.126;2023-06-14T11:59:45;8.27;;;3.60;;
842;SDS011;407;48.884;9.126;2023-06-14T12:02:15;9.73;;;3.75;;
842;SDS011;407;48.884;9.126;2023-06-14T12:04:46;8.52;;;3.95;;
842;SDS011;407;48.884;9.126;2023-06-14T12:07:16;8.38;;;4.40;;
842;SDS011;407;48.884;9.126;2023-06-14T12:12:24;7.40;;;3.00;;
842;SDS011;407;48.884;9.126;2023-06-14T12:14:50;7.75;;;3.40;;
842;SDS011;407;48.884;9.126;2023-06-14T12:17:16;9.00;;;4.00;;
842;SDS011;407;48.884;9.126;2023-06-14T12:19:43;8.40;;;3.80;;
842;SDS011;407;48.884;9.126;2023-06-14T12:22:10;8.57;;;3.95;;
842;SDS011;407;48.884;9.126;2023-06-14T12:24:36;9.25;;;3.60;;
842;SDS011;407;48.884;9.126;2023-06-14T12:27:03;10.27;;;3.90;;
842;SDS011;407;48.884;9.126;2023-06-14T12:29:29;9.40;;;3.88;;
842;SDS011;407;48.884;9.126;2023-06-14T12:31:56;8.38;;;4.40;;
842;SDS011;407;48.884;9.126;2023-06-14T12:34:25;8.38;;;3.63;;
842;SDS011;407;48.884;9.126;2023-06-14T12:36:54;8.73;;;4.30;;
842;SDS011;407;48.884;9.126;2023-06-14T12:39:20;9.48;;;4.50;;
842;SDS011;407;48.884;9.126;2023-06-14T12:41:46;10.65;;;4.20;;
842;SDS011;407;48.884;9.126;2023-06-14T12:44:12;8.55;;;3.92;;
842;SDS011;407;48.884;9.126;2023-06-14T12:46:38;7.95;;;4.00;;
842;SDS011;407;48.884;9.126;2023-06-14T12:49:04;10.13;;;4.20;;
842;SDS011;407;48.884;9.126;2023-06-14T12:51:31;11.38;;;3.83;;
842;SDS011;407;48.884;9.126;2023-06-14T12:53:57;9.70;;;4.00;;
842;SDS011;407;48.884;9.126;2023-06-14T12:56:22;8.17;;;3.70;;
842;SDS011;407;48.884;9.126;2023-06-14T12:58:48;7.90;;;3.90;;
842;SDS011;407;48.884;9.126;2023-06-14T13:01:14;8.75;;;4.20;;
842;SDS011;407;48.884;9.126;2023-06-14T13:03:39;9.50;;;3.88;;
842;SDS011;407;48.884;9.126;2023-06-14T13:06:05;9.45;;;4.07;;
842;SDS011;407;48.884;9.126;2023-06-14T13:08:30;8.77;;;4.20;;
842;SDS011;407;48.884;9.126;2023-06-14T13:10:56;9.07;;;4.10;;
842;SDS011;407;48.884;9.126;2023-06-14T13:13:22;7.30;;;3.78;;
842;SDS011;407;48.884;9.126;2023-06-14T13:15:48;10.00;;;4.30;;
842;SDS011;407;48.884;9.126;2023-06-14T13:18:15;11.13;;;4.80;;
842;SDS011;407;48.884;9.126;2023-06-14T13:20:41;8.60;;;3.90;;
842;SDS011;407;48.884;9.126;2023-06-14T13:23:07;9.30;;;4.90;;
842;SDS011;407;48.884;9.126;2023-06-14T13:25:34;9.30;;;4.30;;
842;SDS011;407;48.884;9.126;2023-06-14T13:28:01;9.60;;;4.43;;
842;SDS011;407;48.884;9.126;2023-06-14T13:30:27;8.80;;;4.07;;
842;SDS011;407;48.884;9.126;2023-06-14T13:32:53;10.10;;;4.57;;
842;SDS011;407;48.884;9.126;2023-06-14T13:35:19;9.27;;;4.40;;
842;SDS011;407;48.884;9.126;2023-06-14T13:37:45;8.63;;;3.90;;
842;SDS011;407;48.884;9.126;2023-06-14T13:40:10;9.25;;;3.95;;
842;SDS011;407;48.884;9.126;2023-06-14T13:42:36;8.73;;;4.00;;
842;SDS011;407;48.884;9.126;2023-06-14T13:45:02;15.97;;;4.50;;
842;SDS011;407;48.884;9.126;2023-06-14T13:47:29;9.43;;;4.78;;
842;SDS011;407;48.884;9.126;2023-06-14T13:49:55;9.77;;;4.30;;
842;SDS011;407;48.884;9.126;2023-06-14T13:52:21;8.73;;;3.80;;
842;SDS011;407;48.884;9.126;2023-06-14T13:54:46;9.90;;;3.73;;
842;SDS011;407;48.884;9.126;2023-06-14T13:57:12;7.50;;;3.80;;
842;SDS011;407;48.884;9.126;2023-06-14T13:59:38;10.33;;;4.40;;
842;SDS011;407;48.884;9.126;2023-06-14T14:02:04;8.18;;;4.38;;
842;SDS011;407;48.884;9.126;2023-06-14T14:04:30;8.20;;;4.10;;
842;SDS011;407;48.884;9.126;2023-06-14T14:06:56;8.15;;;4.00;;
842;SDS011;407;48.884;9.126;2023-06-14T14:09:22;9.10;;;4.20;;
842;SDS011;407;48.884;9.126;2023-06-14T14:11:47;8.30;;;3.90;;
842;SDS011;407;48.884;9.126;2023-06-14T14:14:13;8.68;;;4.47;;
842;SDS011;407;48.884;9.126;2023-06-14T14:16:39;11.13;;;4.60;;
842;SDS011;407;48.884;9.126;2023-06-14T14:19:05;8.90;;;4.30;;
842;SDS011;407;48.884;9.126;2023-06-14T14:21:31;9.60;;;4.05;;
842;SDS011;407;48.884;9.126;2023-06-14T14:23:57;8.40;;;4.05;;
842;SDS011;407;48.884;9.126;2023-06-14T14:26:23;8.20;;;4.07;;
842;SDS011;407;48.884;9.126;2023-06-14T14:28:49;8.30;;;4.32;;
842;SDS011;407;48.884;9.126;2023-06-14T14:31:16;9.10;;;4.30;;
842;SDS011;407;48.884;9.126;2023-06-14T14:33:42;9.00;;;4.60;;
842;SDS011;407;48.884;9.126;2023-06-14T14:36:07;8.20;;;4.40;;
842;SDS011;407;48.884;9.126;2023-06-14T14:38:33;9.20;;;4.60;;
842;SDS011;407;48.884;9.126;2023-06-14T14:40:59;9.15;;;4.70;;
842;SDS011;407;48.884;9.126;2023-06-14T14:43:24;12.77;;;4.80;;
842;SDS011;407;48.884;9.126;2023-06-14T14:45:50;9.80;;;4.60;;
842;SDS011;407;48.884;9.126;2023-06-14T14:48:15;13.10;;;4.43;;
842;SDS011;407;48.884;9.126;2023-06-14T14:50:41;9.00;;;4.30;;
842;SDS011;407;48.884;9.126;2023-06-14T14:53:07;9.40;;;4.50;;
842;SDS011;407;48.884;9.126;2023-06-14T14:55:32;9.90;;;4.55;;
842;SDS011;407;48.884;9.126;2023-06-14T14:58:01;8.70;;;4.40;;
842;SDS011;407;48.884;9.126;2023-06-14T15:00:27;10.45;;;4.53;;
842;SDS011;407;48.884;9.126;2023-06-14T15:02:53;8.82;;;4.50;;
842;SDS011;407;48.884;9.126;2023-06-14T15:05:19;8.67;;;4.37;;
842;SDS011;407;48.884;9.126;2023-06-14T15:07:44;8.67;;;4.00;;
842;SDS011;407;48.884;9.126;2023-06-14T15:10:10;8.55;;;4.40;;
842;SDS011;407;48.884;9.126;2023-06-14T15:12:36;9.35;;;4.50;;
842;SDS011;407;48.884;9.126;2023-06-14T15:15:02;10.70;;;4.60;;
842;SDS011;407;48.884;9.126;2023-06-14T15:17:30;8.88;;;3.90;;
842;SDS011;407;48.884;9.126;2023-06-14T15:19:56;9.23;;;3.70;;
842;SDS011;407;48.884;9.126;2023-06-14T15:22:21;9.00;;;4.27;;
842;SDS011;407;48.884;9.126;2023-06-14T15:24:47;9.00;;;4.23;;
842;SDS011;407;48.884;9.126;2023-06-14T15:27:12;9.07;;;4.70;;
842;SDS011;407;48.884;9.126;2023-06-14T15:29:39;8.37;;;3.97;;
842;SDS011;407;48.884;9.126;2023-06-14T15:32:06;8.68;;;3.90;;
842;SDS011;407;48.884;9.126;2023-06-14T15:34:32;9.18;;;4.20;;
842;SDS011;407;48.884;9.126;2023-06-14T15:37:03;10.30;;;3.95;;
842;SDS011;407;48.884;9.126;2023-06-14T15:39:31;9.07;;;4.17;;
842;SDS011;407;48.884;9.126;2023-06-14T15:41:57;8.75;;;4.03;;
842;SDS011;407;48.884;9.126;2023-06-14T15:44:26;7.90;;;3.30;;
842;SDS011;407;48.884;9.126;2023-06-14T15:46:51;9.53;;;4.60;;
842;SDS011;407;48.884;9.126;2023-06-14T15:49:17;9.13;;;4.10;;
842;SDS011;407;48.884;9.126;2023-06-14T15:51:44;8.18;;;4.13;;
842;SDS011;407;48.884;9.126;2023-06-14T15:54:09;8.60;;;4.10;;